createdAt,value
2023-11-18T00:01:11.500Z,9.70
2023-11-18T00:03:39.702Z,11.57
2023-11-18T00:06:08.913Z,10.30
2023-11-18T00:08:36.964Z,8.83
2023-11-18T00:11:05.762Z,7.77
2023-11-18T00:13:33.907Z,8.33
2023-11-18T00:16:04.004Z,6.97
2023-11-18T00:18:32.973Z,9.80
2023-11-18T00:21:01.356Z,10.00
2023-11-18T00:23:43.657Z,10.73
2023-11-18T00:26:27.641Z,8.47
2023-11-18T00:29:01.541Z,8.27
2023-11-18T00:31:34.245Z,7.53
2023-11-18T00:34:05.573Z,8.37
2023-11-18T00:36:33.651Z,7.77
2023-11-18T00:39:02.261Z,7.57
2023-11-18T00:41:30.355Z,8.43
2023-11-18T00:43:58.615Z,9.23
2023-11-18T00:46:27.253Z,8.90
2023-11-18T00:48:59.031Z,9.90
2023-11-18T00:51:27.645Z,10.00
2023-11-18T00:53:56.019Z,9.70
2023-11-18T00:56:24.225Z,8.40
2023-11-18T00:58:53.576Z,8.43
2023-11-18T01:01:22.629Z,8.00
2023-11-18T01:03:50.872Z,8.67
2023-11-18T01:06:20.428Z,9.53
2023-11-18T01:08:48.804Z,9.83
2023-11-18T01:11:20.816Z,6.40
2023-11-18T01:13:57.771Z,9.43
2023-11-18T01:16:26.166Z,11.13
2023-11-18T01:18:55.428Z,12.53
2023-11-18T01:21:25.385Z,7.97
2023-11-18T01:23:53.480Z,9.40
2023-11-18T01:26:22.842Z,12.37
2023-11-18T01:28:50.939Z,12.27
2023-11-18T01:31:34.402Z,11.37
2023-11-18T01:34:08.938Z,10.67
2023-11-18T01:36:38.689Z,10.27
2023-11-18T01:39:08.184Z,17.63
2023-11-18T01:41:36.764Z,15.23
2023-11-18T01:44:05.716Z,13.23
2023-11-18T01:46:34.094Z,12.83
2023-11-18T01:49:02.243Z,11.67
2023-11-18T01:51:30.361Z,15.23
2023-11-18T01:54:02.535Z,14.40
2023-11-18T01:56:30.807Z,13.03
2023-11-18T01:58:59.995Z,12.90
2023-11-18T02:01:30.489Z,13.37
2023-11-18T02:03:58.678Z,15.87
2023-11-18T02:06:32.083Z,11.27
2023-11-18T02:09:02.209Z,13.30
2023-11-18T02:11:42.196Z,12.33
2023-11-18T02:14:17.664Z,11.50
2023-11-18T02:16:51.468Z,11.17
2023-11-18T02:19:23.931Z,16.23
2023-11-18T02:21:55.197Z,12.87
2023-11-18T02:24:37.573Z,10.17
2023-11-18T02:27:07.936Z,13.10
2023-11-18T02:29:39.122Z,15.77
2023-11-18T02:32:17.455Z,10.27
2023-11-18T02:34:59.517Z,10.77
2023-11-18T02:37:28.975Z,14.90
2023-11-18T02:40:09.339Z,10.37
2023-11-18T02:42:41.187Z,13.40
2023-11-18T02:45:13.381Z,10.03
2023-11-18T02:47:41.619Z,14.20
2023-11-18T02:50:20.327Z,13.93
2023-11-18T02:52:47.545Z,13.07
2023-11-18T02:55:15.918Z,13.80
2023-11-18T02:57:45.563Z,11.83
2023-11-18T03:00:20.119Z,13.87
2023-11-18T03:02:49.231Z,13.87
2023-11-18T03:05:17.750Z,11.77
2023-11-18T03:07:54.574Z,13.00
2023-11-18T03:10:23.548Z,12.17
2023-11-18T03:12:54.598Z,11.37
2023-11-18T03:15:24.573Z,11.50
2023-11-18T03:17:55.318Z,13.17
2023-11-18T03:20:27.332Z,10.63
2023-11-18T03:22:55.602Z,12.90
2023-11-18T03:25:23.954Z,11.60
2023-11-18T03:27:55.552Z,10.13
2023-11-18T03:30:24.177Z,13.73
2023-11-18T03:32:52.270Z,11.60
2023-11-18T03:35:20.508Z,12.37
2023-11-18T03:37:49.009Z,10.00
2023-11-18T03:40:17.523Z,9.83
2023-11-18T03:42:57.595Z,10.90
2023-11-18T03:45:27.476Z,12.90
2023-11-18T03:47:57.304Z,11.60
2023-11-18T03:50:25.669Z,13.47
2023-11-18T03:52:53.883Z,11.23
2023-11-18T03:55:22.132Z,13.13
2023-11-18T03:57:50.230Z,15.37
2023-11-18T04:00:30.404Z,10.77
2023-11-18T04:02:59.333Z,11.43
2023-11-18T04:05:27.817Z,9.37
2023-11-18T04:07:55.964Z,10.50
2023-11-18T04:10:24.272Z,10.87
2023-11-18T04:12:52.429Z,10.87
2023-11-18T04:15:20.542Z,12.57
2023-11-18T04:17:58.605Z,13.93
2023-11-18T04:20:26.946Z,9.30
2023-11-18T04:22:55.359Z,11.70
2023-11-18T04:25:23.731Z,11.93
2023-11-18T04:27:51.772Z,12.87
2023-11-18T04:30:20.140Z,10.80
2023-11-18T04:32:49.898Z,13.00
2023-11-18T04:35:28.413Z,11.17
2023-11-18T04:37:56.566Z,11.13
2023-11-18T04:40:25.586Z,9.80
2023-11-18T04:42:53.664Z,14.60
2023-11-18T04:45:21.708Z,14.50
2023-11-18T04:47:52.857Z,10.53
2023-11-18T04:50:21.671Z,10.37
2023-11-18T04:52:57.888Z,14.27
2023-11-18T04:55:27.034Z,12.30
2023-11-18T04:57:55.754Z,13.30
2023-11-18T05:00:24.214Z,12.60
2023-11-18T05:02:54.024Z,10.93
2023-11-18T05:05:23.202Z,11.90
2023-11-18T05:07:51.319Z,10.47
2023-11-18T05:10:30.121Z,16.13
2023-11-18T05:12:58.301Z,19.67
2023-11-18T05:15:31.219Z,10.93
2023-11-18T05:18:00.841Z,12.43
2023-11-18T05:20:29.503Z,11.57
2023-11-18T05:22:57.577Z,10.90
2023-11-18T05:25:25.702Z,11.50
2023-11-18T05:28:01.581Z,11.87
2023-11-18T05:30:42.487Z,11.87
2023-11-18T05:33:32.145Z,13.63
2023-11-18T05:36:06.658Z,10.70
2023-11-18T05:39:08.326Z,10.30
2023-11-18T05:41:54.020Z,11.10
2023-11-18T05:45:20.581Z,11.07
2023-11-18T05:48:38.535Z,7.90
2023-11-18T05:52:12.741Z,9.23
2023-11-18T05:54:49.573Z,11.50
2023-11-18T05:57:24.583Z,11.00
2023-11-18T06:00:41.682Z,12.40
2023-11-18T06:03:47.702Z,10.07
2023-11-18T06:06:44.940Z,7.87
2023-11-18T06:09:21.718Z,9.17
2023-11-18T06:11:57.655Z,14.00
2023-11-18T06:14:32.172Z,9.40
2023-11-18T06:17:15.386Z,11.13
2023-11-18T06:20:18.360Z,9.60
2023-11-18T06:23:08.079Z,11.90
2023-11-18T06:26:00.889Z,8.97
2023-11-18T06:29:08.941Z,9.17
2023-11-18T06:32:17.622Z,10.80
2023-11-18T06:34:45.800Z,8.73
2023-11-18T06:38:18.934Z,9.30
2023-11-18T06:45:28.329Z,6.93
2023-11-18T07:08:46.659Z,11.80
2023-11-18T07:11:14.931Z,10.50
2023-11-18T07:13:43.224Z,9.93
2023-11-18T07:16:11.777Z,11.53
2023-11-18T07:18:40.696Z,10.03
2023-11-18T07:21:10.500Z,12.60
2023-11-18T07:23:40.023Z,9.23
2023-11-18T07:26:15.064Z,9.03
2023-11-18T07:28:45.452Z,9.50
2023-11-18T07:31:14.895Z,8.00
2023-11-18T07:33:45.650Z,12.47
2023-11-18T07:36:13.832Z,10.00
2023-11-18T07:38:43.265Z,9.77
2023-11-18T07:41:24.435Z,11.60
2023-11-18T07:43:53.761Z,6.90
2023-11-18T07:46:23.382Z,9.67
2023-11-18T07:48:53.025Z,13.20
2023-11-18T07:51:22.834Z,11.13
2023-11-18T07:53:53.745Z,8.83
2023-11-18T07:56:23.421Z,7.37
2023-11-18T07:58:53.210Z,8.23
2023-11-18T08:01:22.289Z,8.47
2023-11-18T08:03:52.016Z,8.93
2023-11-18T08:06:20.373Z,9.93
2023-11-18T08:08:49.470Z,8.27
2023-11-18T08:11:19.351Z,10.97
2023-11-18T08:13:48.293Z,10.20
2023-11-18T08:16:17.053Z,9.90
2023-11-18T08:18:46.053Z,8.17
2023-11-18T08:21:14.213Z,8.43
2023-11-18T08:23:42.810Z,7.07
2023-11-18T08:26:13.660Z,9.37
2023-11-18T08:28:43.294Z,9.83
2023-11-18T08:31:11.715Z,8.00
2023-11-18T08:33:39.901Z,7.17
2023-11-18T08:36:13.629Z,8.20
2023-11-18T08:38:45.182Z,8.90
2023-11-18T08:41:13.641Z,5.97
2023-11-18T08:43:43.391Z,7.80
2023-11-18T08:46:11.545Z,10.73
2023-11-18T08:48:39.893Z,8.53
2023-11-18T08:51:09.623Z,7.17
2023-11-18T08:53:42.122Z,7.23
2023-11-18T08:56:15.206Z,12.43
2023-11-18T08:58:46.757Z,8.07
2023-11-18T09:01:16.042Z,7.07
2023-11-18T09:03:49.626Z,10.70
2023-11-18T09:06:19.965Z,9.73
2023-11-18T09:08:54.047Z,10.10
2023-11-18T09:11:26.119Z,8.60
2023-11-18T09:13:58.615Z,8.60
2023-11-18T09:16:30.419Z,12.10
2023-11-18T09:19:00.477Z,9.20
2023-11-18T09:21:30.557Z,12.03
2023-11-18T09:23:58.986Z,9.17
2023-11-18T09:26:31.019Z,9.37
2023-11-18T09:29:02.696Z,13.20
2023-11-18T09:31:32.803Z,9.33
2023-11-18T09:34:01.243Z,11.17
2023-11-18T09:36:30.417Z,9.30
2023-11-18T09:38:58.726Z,7.93
2023-11-18T09:41:28.789Z,9.10
2023-11-18T09:43:58.587Z,7.47
2023-11-18T09:46:33.707Z,7.47
2023-11-18T09:49:18.576Z,7.30
2023-11-18T09:51:48.988Z,7.10
2023-11-18T09:54:30.192Z,7.20
2023-11-18T09:57:10.944Z,8.80
2023-11-18T09:59:47.770Z,5.63
2023-11-18T10:02:19.627Z,6.27
2023-11-18T10:04:58.147Z,9.17
2023-11-18T10:07:28.897Z,8.07
2023-11-18T10:09:58.742Z,7.30
2023-11-18T10:12:27.969Z,8.53
2023-11-18T10:14:55.396Z,7.70
2023-11-18T10:17:27.246Z,6.10
2023-11-18T10:20:00.180Z,7.90
2023-11-18T10:22:30.193Z,6.60
2023-11-18T10:25:02.205Z,6.90
2023-11-18T10:27:32.701Z,7.40
2023-11-18T10:30:04.587Z,6.70
2023-11-18T10:32:37.041Z,7.93
2023-11-18T10:35:07.362Z,5.70
2023-11-18T10:37:43.148Z,7.00
2023-11-18T10:40:15.948Z,5.17
2023-11-18T10:42:49.753Z,5.70
2023-11-18T10:45:28.292Z,7.33
2023-11-18T10:47:58.861Z,8.93
2023-11-18T10:50:33.013Z,7.57
2023-11-18T10:53:03.540Z,5.73
2023-11-18T10:55:39.173Z,6.67
2023-11-18T10:58:08.705Z,7.07
2023-11-18T11:00:52.208Z,7.07
2023-11-18T11:03:24.810Z,5.93
2023-11-18T11:05:55.380Z,6.80
2023-11-18T11:08:35.671Z,6.37
2023-11-18T11:11:10.948Z,6.00
2023-11-18T11:13:39.767Z,8.67
2023-11-18T11:16:14.667Z,8.03
2023-11-18T11:18:54.556Z,6.17
2023-11-18T11:21:29.335Z,5.17
2023-11-18T11:24:06.285Z,6.23
2023-11-18T11:26:52.682Z,6.83
2023-11-18T11:29:33.587Z,6.93
2023-11-18T11:32:17.522Z,5.70
2023-11-18T11:34:57.868Z,6.10
2023-11-18T11:37:31.387Z,5.97
2023-11-18T11:40:00.105Z,4.47
2023-11-18T11:42:30.029Z,7.77
2023-11-18T11:44:59.603Z,6.63
2023-11-18T11:47:30.315Z,6.50
2023-11-18T11:50:13.840Z,6.67
2023-11-18T11:52:56.652Z,6.27
2023-11-18T11:55:41.930Z,4.57
2023-11-18T11:58:31.393Z,7.90
2023-11-18T12:01:19.081Z,5.43
2023-11-18T12:03:50.517Z,5.80
2023-11-18T12:06:24.753Z,7.93
2023-11-18T12:08:54.615Z,3.90
2023-11-18T12:11:23.384Z,7.17
2023-11-18T12:14:14.047Z,5.33
2023-11-18T12:17:10.130Z,5.07
2023-11-18T12:19:49.734Z,7.87
2023-11-18T12:22:25.823Z,5.60
2023-11-18T12:25:37.558Z,6.43
2023-11-18T12:28:16.568Z,5.00
2023-11-18T12:30:57.175Z,4.87
2023-11-18T12:33:32.355Z,6.90
2023-11-18T12:36:49.688Z,6.47
2023-11-18T12:40:18.805Z,5.47
2023-11-18T12:43:07.616Z,3.70
2023-11-18T12:46:09.476Z,5.37
2023-11-18T12:48:45.049Z,5.77
2023-11-18T12:51:20.388Z,4.20
2023-11-18T12:53:52.436Z,10.97
2023-11-18T12:56:24.460Z,9.57
2023-11-18T12:58:53.208Z,7.00
2023-11-18T13:01:21.631Z,4.83
2023-11-18T13:03:50.133Z,5.27
2023-11-18T13:06:18.656Z,6.60
2023-11-18T13:09:06.737Z,7.20
2023-11-18T13:11:36.514Z,3.07
2023-11-18T13:14:05.437Z,4.63
2023-11-18T13:16:34.149Z,4.47
2023-11-18T13:19:05.099Z,7.67
2023-11-18T13:21:37.784Z,4.60
2023-11-18T13:24:09.573Z,6.30
2023-11-18T13:26:39.282Z,4.30
2023-11-18T13:29:08.964Z,3.87
2023-11-18T13:31:37.392Z,4.37
2023-11-18T13:34:08.214Z,5.20
2023-11-18T13:36:49.885Z,5.03
2023-11-18T13:39:22.279Z,3.90
2023-11-18T13:41:52.782Z,5.13
2023-11-18T13:44:39.053Z,5.87
2023-11-18T13:47:07.807Z,5.77
2023-11-18T13:49:36.736Z,4.77
2023-11-18T13:52:08.326Z,5.50
2023-11-18T13:54:39.378Z,2.63
2023-11-18T13:57:10.733Z,2.93
2023-11-18T13:59:44.354Z,4.70
2023-11-18T14:02:13.993Z,2.83
2023-11-18T14:04:44.401Z,2.37
2023-11-18T14:07:18.868Z,3.43
2023-11-18T14:09:47.222Z,2.87
2023-11-18T14:12:16.945Z,7.60
2023-11-18T14:14:45.106Z,3.47
2023-11-18T14:17:13.350Z,2.20
2023-11-18T14:19:42.972Z,4.77
2023-11-18T14:22:17.465Z,2.00
2023-11-18T14:24:45.598Z,1.83
2023-11-18T14:27:14.697Z,2.93
2023-11-18T14:29:44.338Z,2.23
2023-11-18T14:32:12.606Z,2.30
2023-11-18T14:34:43.050Z,3.57
2023-11-18T14:37:12.140Z,1.47
2023-11-18T14:39:41.625Z,2.80
2023-11-18T14:42:10.614Z,3.50
2023-11-18T14:44:38.733Z,3.13
2023-11-18T14:47:08.468Z,4.27
2023-11-18T14:49:36.830Z,4.77
2023-11-18T14:52:05.776Z,4.60
2023-11-18T14:54:36.967Z,2.80
2023-11-18T14:57:06.451Z,2.83
2023-11-18T14:59:34.781Z,4.93
2023-11-18T15:02:03.450Z,2.77
2023-11-18T15:04:33.275Z,3.23
2023-11-18T15:07:02.388Z,2.07
2023-11-18T15:09:33.169Z,4.03
2023-11-18T15:12:02.024Z,3.30
2023-11-18T15:14:30.480Z,1.47
2023-11-18T15:16:58.934Z,5.03
2023-11-18T15:19:28.502Z,1.70
2023-11-18T15:21:58.249Z,6.17
2023-11-18T15:24:27.188Z,2.50
2023-11-18T15:26:55.429Z,3.20
2023-11-18T15:29:29.231Z,3.77
2023-11-18T15:31:57.473Z,2.00
2023-11-18T15:34:26.257Z,2.87
2023-11-18T15:36:54.466Z,3.33
2023-11-18T15:39:25.032Z,4.77
2023-11-18T15:41:53.301Z,2.30
2023-11-18T15:44:21.804Z,2.73
2023-11-18T15:46:50.774Z,5.20
2023-11-18T15:49:19.226Z,2.80
2023-11-18T15:51:47.886Z,1.80
2023-11-18T15:54:16.478Z,3.03
2023-11-18T15:56:46.033Z,3.13
2023-11-18T15:59:14.138Z,2.97
2023-11-18T16:01:42.428Z,3.93
2023-11-18T16:04:11.803Z,2.80
2023-11-18T16:06:40.030Z,5.13
2023-11-18T16:09:11.530Z,2.73
2023-11-18T16:11:39.726Z,2.87
2023-11-18T16:14:09.645Z,3.13
2023-11-18T16:16:39.147Z,2.97
2023-11-18T16:19:07.333Z,3.30
2023-11-18T16:21:38.813Z,2.07
2023-11-18T16:24:09.460Z,3.43
2023-11-18T16:26:41.684Z,2.73
2023-11-18T16:29:11.268Z,4.27
2023-11-18T16:31:39.393Z,3.43
2023-11-18T16:34:07.956Z,3.90
2023-11-18T16:36:36.325Z,2.60
2023-11-18T16:39:04.670Z,2.13
2023-11-18T16:41:43.342Z,2.20
2023-11-18T16:44:40.791Z,3.23
2023-11-18T16:47:09.284Z,1.80
2023-11-18T16:49:37.463Z,4.73
2023-11-18T16:52:06.556Z,2.13
2023-11-18T16:54:40.530Z,1.77
2023-11-18T16:57:09.699Z,2.90
2023-11-18T16:59:37.934Z,4.90
2023-11-18T17:02:07.907Z,2.30
2023-11-18T17:04:37.764Z,2.67
2023-11-18T17:07:06.338Z,3.93
2023-11-18T17:09:34.633Z,4.53
2023-11-18T17:12:02.784Z,2.67
2023-11-18T17:14:31.160Z,2.10
2023-11-18T17:16:59.416Z,3.27
2023-11-18T17:19:28.971Z,2.00
2023-11-18T17:21:57.084Z,2.97
2023-11-18T17:24:25.161Z,2.20
2023-11-18T17:26:53.488Z,2.47
2023-11-18T17:29:21.682Z,1.53
2023-11-18T17:31:51.244Z,2.03
2023-11-18T17:34:19.507Z,2.63
2023-11-18T17:36:49.142Z,1.93
2023-11-18T17:39:18.911Z,2.20
2023-11-18T17:41:47.067Z,3.53
2023-11-18T17:44:17.660Z,1.93
2023-11-18T17:46:46.604Z,2.67
2023-11-18T17:49:23.632Z,2.10
2023-11-18T17:51:54.050Z,1.77
2023-11-18T17:54:22.196Z,1.93
2023-11-18T17:56:50.444Z,2.60
2023-11-18T17:59:20.385Z,2.73
2023-11-18T18:01:48.645Z,2.13
2023-11-18T18:04:17.311Z,1.33
2023-11-18T18:06:52.874Z,2.03
2023-11-18T18:09:24.016Z,1.50
2023-11-18T18:11:52.143Z,1.40
2023-11-18T18:14:20.318Z,1.63
2023-11-18T18:16:51.622Z,1.77
2023-11-18T18:19:20.124Z,1.07
2023-11-18T18:21:48.206Z,1.43
2023-11-18T18:24:17.730Z,1.87
2023-11-18T18:26:45.837Z,1.83
2023-11-18T18:29:14.022Z,1.40
2023-11-18T18:31:42.235Z,1.47
2023-11-18T18:34:11.471Z,1.50
2023-11-18T18:36:39.588Z,1.20
2023-11-18T18:39:08.008Z,1.30
2023-11-18T18:41:46.933Z,1.90
2023-11-18T18:44:15.159Z,2.80
2023-11-18T18:46:45.964Z,1.40
2023-11-18T18:49:18.456Z,1.10
2023-11-18T18:51:46.632Z,1.97
2023-11-18T18:54:14.884Z,1.70
2023-11-18T18:56:43.080Z,1.53
2023-11-18T18:59:12.782Z,3.13
2023-11-18T19:01:45.929Z,1.30
2023-11-18T19:04:14.350Z,2.00
2023-11-18T19:06:43.012Z,0.93
2023-11-18T19:09:12.507Z,2.03
2023-11-18T19:11:40.709Z,2.20
2023-11-18T19:14:12.774Z,2.03
2023-11-18T19:16:43.438Z,1.60
2023-11-18T19:19:19.519Z,1.90
2023-11-18T19:21:51.588Z,1.50
2023-11-18T19:24:20.681Z,1.30
2023-11-18T19:26:49.478Z,1.87
2023-11-18T19:29:19.119Z,1.33
2023-11-18T19:31:47.235Z,1.37
2023-11-18T19:34:15.804Z,1.03
2023-11-18T19:36:47.491Z,1.70
2023-11-18T19:39:15.853Z,1.77
2023-11-18T19:41:44.134Z,1.20
2023-11-18T19:44:12.967Z,1.20
2023-11-18T19:46:43.592Z,1.13
2023-11-18T19:49:11.965Z,1.07
2023-11-18T19:51:40.542Z,1.40
2023-11-18T19:54:10.230Z,1.20
2023-11-18T19:56:38.469Z,1.00
2023-11-18T19:59:06.929Z,1.60
2023-11-18T20:01:35.050Z,0.90
2023-11-18T20:04:06.377Z,1.73
2023-11-18T20:06:35.453Z,0.80
2023-11-18T20:09:05.491Z,0.40
2023-11-18T20:11:33.984Z,0.70
2023-11-18T20:14:02.257Z,0.87
2023-11-18T20:16:30.666Z,1.07
2023-11-18T20:18:58.902Z,2.57
2023-11-18T20:21:28.522Z,0.70
2023-11-18T20:23:57.694Z,1.33
2023-11-18T20:26:25.984Z,0.97
2023-11-18T20:28:54.345Z,1.23
2023-11-18T20:31:22.531Z,1.03
2023-11-18T20:33:51.450Z,1.40
2023-11-18T20:36:19.760Z,1.10
2023-11-18T20:38:49.585Z,0.90
2023-11-18T20:41:20.960Z,0.80
2023-11-18T20:43:50.322Z,1.10
2023-11-18T20:46:18.851Z,1.50
2023-11-18T20:48:47.035Z,0.87
2023-11-18T20:51:16.224Z,1.30
2023-11-18T20:53:45.505Z,1.13
2023-11-18T20:56:17.699Z,1.70
2023-11-18T20:58:48.683Z,1.37
2023-11-18T21:01:17.737Z,1.00
2023-11-18T21:03:47.442Z,2.13
2023-11-18T21:06:21.682Z,2.53
2023-11-18T21:08:51.050Z,1.40
2023-11-18T21:11:22.164Z,1.10
2023-11-18T21:13:51.356Z,0.90
2023-11-18T21:16:19.780Z,1.47
2023-11-18T21:18:49.315Z,1.30
2023-11-18T21:21:19.243Z,1.90
2023-11-18T21:23:49.112Z,2.97
2023-11-18T21:26:18.260Z,1.37
2023-11-18T21:28:49.231Z,2.60
2023-11-18T21:31:18.088Z,1.30
2023-11-18T21:33:46.272Z,1.30
2023-11-18T21:36:14.968Z,1.50
2023-11-18T21:41:22.226Z,1.93
2023-11-18T21:43:52.227Z,1.30
2023-11-18T21:46:21.376Z,1.40
2023-11-18T21:48:52.884Z,1.73
2023-11-18T21:51:21.030Z,2.30
2023-11-18T21:53:49.244Z,1.53
2023-11-18T21:56:17.799Z,1.20
2023-11-18T21:58:46.216Z,2.15
2023-11-18T22:01:16.300Z,1.40
2023-11-18T22:03:46.902Z,1.20
2023-11-18T22:06:24.172Z,1.30
2023-11-18T22:08:52.931Z,1.33
2023-11-18T22:11:21.492Z,1.20
2023-11-18T22:13:50.558Z,1.20
2023-11-18T22:16:26.354Z,1.30
2023-11-18T22:18:55.474Z,1.33
2023-11-18T22:21:26.854Z,1.50
2023-11-18T22:23:55.168Z,1.17
2023-11-18T22:26:24.106Z,1.30
2023-11-18T22:28:56.936Z,1.30
2023-11-18T22:31:26.972Z,1.13
2023-11-18T22:33:55.199Z,2.08
2023-11-18T22:36:22.589Z,1.30
2023-11-18T22:38:52.198Z,1.40
2023-11-18T22:41:20.551Z,1.30
2023-11-18T22:43:54.995Z,1.48
2023-11-18T22:46:23.158Z,1.95
2023-11-18T22:48:53.061Z,2.75
2023-11-18T22:51:21.352Z,1.60
2023-11-18T22:53:49.982Z,1.60
2023-11-18T22:56:18.645Z,2.83
2023-11-18T22:58:48.886Z,2.95
2023-11-18T23:01:21.148Z,1.40
2023-11-18T23:03:49.514Z,1.50
2023-11-18T23:06:22.003Z,1.60
2023-11-18T23:08:50.721Z,1.80
2023-11-18T23:11:20.235Z,1.60
2023-11-18T23:13:48.515Z,2.17
2023-11-18T23:16:16.952Z,1.67
2023-11-18T23:18:45.312Z,2.40
2023-11-18T23:21:13.490Z,2.22
2023-11-18T23:23:43.481Z,1.67
2023-11-18T23:26:13.414Z,1.70
2023-11-18T23:28:41.662Z,2.20
2023-11-18T23:31:12.394Z,1.60
2023-11-18T23:33:40.871Z,1.83
2023-11-18T23:36:11.385Z,1.45
2023-11-18T23:38:39.910Z,1.98
2023-11-18T23:41:09.734Z,4.00
2023-11-18T23:43:40.990Z,1.75
2023-11-18T23:46:09.350Z,1.40
2023-11-18T23:48:38.425Z,1.60
2023-11-18T23:51:07.467Z,1.83
2023-11-18T23:53:35.687Z,1.60
2023-11-18T23:56:04.218Z,1.58
2023-11-18T23:58:37.411Z,2.08
